createdAt,value
2022-11-21T00:00:43.410Z,3.03
2022-11-21T00:03:29.123Z,3.05
2022-11-21T00:06:15.467Z,3.50
2022-11-21T00:09:00.911Z,2.83
2022-11-21T00:11:46.542Z,3.17
2022-11-21T00:14:33.762Z,2.95
2022-11-21T00:17:19.446Z,3.00
2022-11-21T00:20:05.175Z,3.10
2022-11-21T00:22:50.854Z,3.10
2022-11-21T00:25:37.047Z,3.07
2022-11-21T00:28:22.883Z,3.00
2022-11-21T00:31:08.682Z,2.92
2022-11-21T00:33:54.136Z,2.90
2022-11-21T00:36:39.776Z,3.10
2022-11-21T00:39:25.154Z,3.00
2022-11-21T00:42:10.670Z,2.90
2022-11-21T00:44:56.229Z,2.70
2022-11-21T00:47:42.242Z,3.13
2022-11-21T00:50:27.983Z,3.20
2022-11-21T00:53:13.434Z,3.00
2022-11-21T00:55:59.120Z,2.88
2022-11-21T00:58:44.765Z,2.70
2022-11-21T01:01:30.287Z,2.60
2022-11-21T01:04:16.078Z,2.60
2022-11-21T01:07:01.898Z,2.90
2022-11-21T01:09:48.221Z,2.47
2022-11-21T01:12:33.702Z,2.63
2022-11-21T01:15:19.067Z,2.67
2022-11-21T01:18:04.719Z,2.70
2022-11-21T01:20:50.164Z,2.50
2022-11-21T01:23:35.684Z,2.30
2022-11-21T01:26:24.108Z,2.77
2022-11-21T01:29:09.547Z,2.40
2022-11-21T01:31:55.218Z,2.13
2022-11-21T01:34:40.843Z,2.63
2022-11-21T01:37:26.445Z,2.37
2022-11-21T01:40:12.767Z,2.53
2022-11-21T01:43:12.068Z,2.30
2022-11-21T01:46:03.823Z,2.60
2022-11-21T01:49:03.229Z,2.37
2022-11-21T01:52:11.798Z,2.70
2022-11-21T01:55:05.419Z,2.57
2022-11-21T01:57:51.490Z,2.13
2022-11-21T02:00:40.471Z,2.30
2022-11-21T02:03:29.172Z,2.22
2022-11-21T02:06:14.764Z,2.03
2022-11-21T02:09:01.658Z,2.43
2022-11-21T02:11:52.358Z,2.60
2022-11-21T02:14:40.071Z,2.40
2022-11-21T02:17:27.127Z,2.20
2022-11-21T02:20:18.035Z,2.30
2022-11-21T02:23:25.194Z,2.20
2022-11-21T02:26:11.078Z,2.20
2022-11-21T02:28:58.661Z,2.53
2022-11-21T02:31:44.141Z,2.30
2022-11-21T02:34:29.788Z,2.20
2022-11-21T02:37:16.605Z,2.10
2022-11-21T02:40:06.548Z,2.27
2022-11-21T02:43:10.183Z,2.10
2022-11-21T02:45:56.321Z,2.20
2022-11-21T02:48:42.118Z,2.17
2022-11-21T02:51:27.775Z,1.80
2022-11-21T02:54:13.314Z,2.10
2022-11-21T02:56:58.964Z,2.20
2022-11-21T02:59:44.402Z,2.00
2022-11-21T03:02:29.773Z,2.30
2022-11-21T03:05:17.130Z,2.07
2022-11-21T03:08:03.452Z,2.10
2022-11-21T03:10:48.993Z,1.93
2022-11-21T03:13:34.442Z,2.10
2022-11-21T03:16:20.219Z,2.10
2022-11-21T03:19:05.770Z,2.35
2022-11-21T03:21:51.235Z,2.05
2022-11-21T03:24:36.729Z,2.10
2022-11-21T03:27:22.122Z,1.90
2022-11-21T03:30:08.415Z,1.73
2022-11-21T03:32:57.781Z,2.10
2022-11-21T03:35:43.588Z,2.10
2022-11-21T03:38:29.327Z,1.80
2022-11-21T03:41:29.797Z,2.00
2022-11-21T03:44:15.604Z,1.77
2022-11-21T03:47:01.094Z,1.83
2022-11-21T03:49:46.545Z,1.90
2022-11-21T03:52:32.089Z,1.90
2022-11-21T03:55:17.950Z,1.80
2022-11-21T03:58:03.510Z,1.90
2022-11-21T04:00:49.320Z,1.80
2022-11-21T04:03:35.158Z,2.10
2022-11-21T04:06:22.779Z,2.00
2022-11-21T04:09:08.391Z,1.90
2022-11-21T04:11:53.754Z,1.80
2022-11-21T04:14:39.319Z,1.70
2022-11-21T04:17:24.795Z,1.80
2022-11-21T04:20:10.949Z,1.70
2022-11-21T04:23:33.915Z,1.92
2022-11-21T04:26:31.879Z,1.90
2022-11-21T04:29:17.398Z,1.90
2022-11-21T04:32:02.866Z,1.57
2022-11-21T04:34:48.197Z,1.87
2022-11-21T04:37:34.031Z,1.90
2022-11-21T04:40:19.729Z,1.77
2022-11-21T04:43:05.267Z,1.70
2022-11-21T04:45:50.962Z,1.90
2022-11-21T04:48:36.408Z,1.80
2022-11-21T04:51:21.937Z,1.60
2022-11-21T04:54:07.609Z,1.80
2022-11-21T04:56:52.862Z,1.70
2022-11-21T04:59:38.281Z,1.90
2022-11-21T05:02:24.246Z,1.90
2022-11-21T05:05:10.485Z,1.63
2022-11-21T05:07:56.124Z,1.80
2022-11-21T05:11:01.796Z,1.80
2022-11-21T05:13:47.308Z,1.70
2022-11-21T05:16:34.119Z,1.50
2022-11-21T05:19:19.840Z,1.60
2022-11-21T05:22:05.257Z,1.60
2022-11-21T05:24:50.789Z,1.70
2022-11-21T05:27:36.286Z,1.70
2022-11-21T05:30:21.792Z,1.70
2022-11-21T05:33:07.286Z,1.57
2022-11-21T05:35:52.755Z,1.60
2022-11-21T05:38:38.131Z,1.53
2022-11-21T05:41:23.673Z,1.63
2022-11-21T05:44:09.303Z,1.47
2022-11-21T05:46:54.751Z,1.50
2022-11-21T05:49:40.392Z,1.60
2022-11-21T05:52:25.866Z,1.40
2022-11-21T05:55:11.403Z,1.60
2022-11-21T05:58:00.943Z,1.57
2022-11-21T06:00:46.576Z,1.60
2022-11-21T06:03:35.839Z,1.60
2022-11-21T06:06:24.882Z,1.60
2022-11-21T06:09:11.034Z,1.53
2022-11-21T06:11:56.366Z,1.60
2022-11-21T06:14:41.846Z,1.40
2022-11-21T06:17:27.499Z,1.50
2022-11-21T06:20:12.896Z,1.50
2022-11-21T06:22:58.397Z,1.50
2022-11-21T06:25:44.327Z,1.60
2022-11-21T06:28:35.266Z,1.67
2022-11-21T06:31:26.330Z,2.23
2022-11-21T06:34:12.043Z,1.90
2022-11-21T06:36:57.754Z,1.77
2022-11-21T06:39:43.656Z,2.20
2022-11-21T06:42:29.329Z,1.80
2022-11-21T06:45:15.096Z,2.27
2022-11-21T06:48:05.077Z,1.63
2022-11-21T06:50:51.990Z,2.00
2022-11-21T06:53:38.020Z,2.00
2022-11-21T06:56:29.016Z,3.70
2022-11-21T06:59:14.635Z,3.20
2022-11-21T07:02:00.640Z,3.03
2022-11-21T07:04:46.526Z,3.00
2022-11-21T07:07:32.502Z,2.63
2022-11-21T07:10:18.499Z,2.70
2022-11-21T07:13:22.196Z,2.37
2022-11-21T07:16:10.538Z,2.23
2022-11-21T07:18:56.415Z,2.90
2022-11-21T07:21:43.150Z,2.23
2022-11-21T07:24:29.033Z,2.37
2022-11-21T07:27:14.529Z,2.00
2022-11-21T07:30:00.345Z,1.87
2022-11-21T07:32:46.452Z,1.87
2022-11-21T07:35:33.545Z,2.07
2022-11-21T07:38:19.279Z,1.70
2022-11-21T07:41:05.407Z,1.90
2022-11-21T07:43:51.243Z,1.87
2022-11-21T07:46:37.187Z,1.97
2022-11-21T07:49:23.366Z,1.90
2022-11-21T07:52:08.936Z,2.80
2022-11-21T07:54:54.758Z,3.13
2022-11-21T07:57:40.496Z,3.07
2022-11-21T08:00:27.297Z,3.03
2022-11-21T08:03:13.661Z,2.47
2022-11-21T08:06:02.880Z,2.70
2022-11-21T08:08:52.090Z,2.57
2022-11-21T08:11:37.691Z,2.27
2022-11-21T08:14:23.517Z,2.50
2022-11-21T08:17:08.962Z,2.20
2022-11-21T08:19:54.504Z,2.27
2022-11-21T08:22:42.913Z,1.80
2022-11-21T08:25:28.341Z,2.20
2022-11-21T08:28:14.132Z,1.58
2022-11-21T08:31:04.106Z,2.08
2022-11-21T08:33:49.740Z,1.95
2022-11-21T08:36:35.527Z,1.80
2022-11-21T08:39:20.915Z,1.98
2022-11-21T08:42:06.507Z,1.93
2022-11-21T08:44:52.742Z,1.70
2022-11-21T08:47:38.239Z,1.55
2022-11-21T08:50:24.717Z,1.52
2022-11-21T08:53:13.044Z,1.70
2022-11-21T08:56:03.917Z,1.80
2022-11-21T08:58:50.318Z,1.65
2022-11-21T09:01:35.730Z,1.60
2022-11-21T09:04:21.116Z,1.50
2022-11-21T09:07:06.696Z,1.80
2022-11-21T09:09:52.289Z,2.15
2022-11-21T09:12:37.828Z,1.25
2022-11-21T09:15:41.628Z,1.27
2022-11-21T09:18:26.991Z,1.60
2022-11-21T09:21:16.733Z,1.80
2022-11-21T09:24:02.512Z,1.30
2022-11-21T09:26:48.014Z,1.35
2022-11-21T09:29:33.391Z,1.40
2022-11-21T09:32:19.022Z,1.70
2022-11-21T09:35:05.006Z,1.30
2022-11-21T09:37:52.037Z,1.20
2022-11-21T09:40:44.020Z,1.30
2022-11-21T09:44:13.384Z,1.17
2022-11-21T09:47:17.118Z,1.38
2022-11-21T09:50:15.077Z,1.30
2022-11-21T09:53:06.272Z,1.60
2022-11-21T09:56:20.085Z,1.20
2022-11-21T09:59:24.341Z,1.50
2022-11-21T10:02:19.649Z,1.50
2022-11-21T10:05:13.411Z,1.30
2022-11-21T10:08:05.265Z,1.23
2022-11-21T10:10:56.406Z,1.45
2022-11-21T10:14:03.051Z,1.40
2022-11-21T10:17:00.001Z,1.88
2022-11-21T10:19:58.082Z,1.30
2022-11-21T10:23:00.321Z,1.30
2022-11-21T10:25:56.326Z,1.70
2022-11-21T10:29:12.506Z,1.30
2022-11-21T10:32:03.774Z,1.80
2022-11-21T10:34:53.813Z,1.83
2022-11-21T10:37:42.335Z,1.50
2022-11-21T10:40:37.046Z,1.33
2022-11-21T10:43:53.128Z,1.45
2022-11-21T10:46:38.593Z,1.40
2022-11-21T10:49:25.974Z,1.25
2022-11-21T10:52:11.443Z,1.45
2022-11-21T10:55:03.044Z,1.70
2022-11-21T10:57:50.768Z,1.23
2022-11-21T11:00:37.136Z,1.40
2022-11-21T11:03:22.797Z,1.15
2022-11-21T11:06:11.003Z,1.13
2022-11-21T11:08:56.570Z,1.40
2022-11-21T11:11:41.963Z,1.27
2022-11-21T11:14:33.731Z,1.40
2022-11-21T11:17:31.966Z,1.45
2022-11-21T11:20:39.559Z,1.20
2022-11-21T11:23:27.678Z,1.17
2022-11-21T11:26:27.959Z,1.42
2022-11-21T11:29:30.272Z,1.10
2022-11-21T11:32:21.890Z,1.10
2022-11-21T11:35:13.722Z,1.13
2022-11-21T11:38:06.315Z,1.10
2022-11-21T11:40:53.227Z,1.00
2022-11-21T11:44:28.203Z,1.08
2022-11-21T11:47:30.428Z,1.17
2022-11-21T11:50:24.825Z,1.08
2022-11-21T11:53:13.302Z,1.50
2022-11-21T11:56:08.254Z,1.58
2022-11-21T11:59:28.817Z,1.50
2022-11-21T12:02:29.415Z,1.20
2022-11-21T12:05:33.511Z,1.60
2022-11-21T12:08:41.336Z,1.63
2022-11-21T12:11:49.263Z,1.30
2022-11-21T12:15:16.069Z,1.33
2022-11-21T12:18:08.853Z,1.40
2022-11-21T12:21:00.389Z,1.30
2022-11-21T12:24:05.769Z,1.15
2022-11-21T12:27:02.608Z,1.23
2022-11-21T12:30:23.602Z,1.38
2022-11-21T12:33:38.178Z,1.40
2022-11-21T12:36:37.802Z,1.20
2022-11-21T12:39:34.664Z,1.10
2022-11-21T12:42:50.691Z,1.52
2022-11-21T12:46:02.768Z,1.33
2022-11-21T12:49:16.118Z,1.20
2022-11-21T12:52:32.262Z,1.20
2022-11-21T12:55:20.115Z,1.25
2022-11-21T12:58:32.573Z,1.27
2022-11-21T13:01:31.935Z,1.70
2022-11-21T13:04:31.605Z,1.60
2022-11-21T13:07:19.526Z,1.20
2022-11-21T13:10:06.048Z,1.02
2022-11-21T13:12:59.467Z,1.20
2022-11-21T13:15:57.067Z,1.23
2022-11-21T13:18:49.898Z,1.20
2022-11-21T13:21:49.839Z,1.00
2022-11-21T13:24:44.936Z,1.00
2022-11-21T13:27:44.668Z,1.05
2022-11-21T13:30:30.784Z,1.40
2022-11-21T13:33:34.680Z,1.20
2022-11-21T13:36:29.478Z,1.30
2022-11-21T13:39:18.168Z,1.35
2022-11-21T13:42:28.086Z,0.98
2022-11-21T13:45:47.111Z,1.10
2022-11-21T13:48:52.407Z,1.13
2022-11-21T13:51:52.397Z,1.15
2022-11-21T13:55:08.387Z,1.10
2022-11-21T13:58:18.122Z,1.30
2022-11-21T14:01:46.357Z,1.38
2022-11-21T14:04:35.443Z,1.27
2022-11-21T14:07:28.123Z,1.00
2022-11-21T14:10:25.704Z,1.00
2022-11-21T14:13:23.124Z,1.00
2022-11-21T14:16:28.406Z,1.55
2022-11-21T14:19:19.062Z,0.98
2022-11-21T14:22:04.780Z,1.05
2022-11-21T14:24:52.375Z,1.05
2022-11-21T14:27:45.348Z,1.13
2022-11-21T14:30:34.322Z,1.17
2022-11-21T14:33:30.486Z,0.90
2022-11-21T14:36:19.933Z,0.98
2022-11-21T14:42:17.135Z,1.10
2022-11-21T14:45:26.950Z,1.13
2022-11-21T14:48:13.322Z,1.48
2022-11-21T14:51:01.834Z,1.15
2022-11-21T14:53:49.415Z,1.27
2022-11-21T14:56:35.317Z,1.08
2022-11-21T14:59:33.468Z,1.20
2022-11-21T15:02:22.211Z,1.00
2022-11-21T15:05:21.249Z,1.70
2022-11-21T15:08:55.850Z,2.67
2022-11-21T15:11:37.678Z,3.80
2022-11-21T15:14:44.018Z,4.55
2022-11-21T15:17:30.287Z,5.18
2022-11-21T15:20:15.984Z,6.55
2022-11-21T15:23:02.650Z,10.65
2022-11-21T15:25:48.350Z,14.73
2022-11-21T15:28:33.890Z,18.80
2022-11-21T15:31:23.494Z,20.52
2022-11-21T15:34:34.207Z,22.02
2022-11-21T15:37:17.509Z,23.17
2022-11-21T15:40:03.418Z,23.92
2022-11-21T15:42:50.372Z,24.55
2022-11-21T15:45:36.119Z,25.05
2022-11-21T15:48:23.695Z,24.25
2022-11-21T15:51:11.057Z,23.75
2022-11-21T15:53:56.798Z,24.90
2022-11-21T15:56:42.886Z,25.10
2022-11-21T15:59:28.962Z,24.17
2022-11-21T16:02:15.081Z,25.00
2022-11-21T16:05:01.162Z,25.15
2022-11-21T16:07:48.506Z,24.85
2022-11-21T16:10:36.303Z,24.08
2022-11-21T16:13:21.920Z,24.02
2022-11-21T16:16:11.944Z,24.65
2022-11-21T16:18:58.107Z,24.42
2022-11-21T16:21:43.850Z,24.83
2022-11-21T16:24:29.742Z,24.70
2022-11-21T16:27:15.063Z,24.80
2022-11-21T16:30:01.076Z,24.33
2022-11-21T16:32:47.757Z,23.90
2022-11-21T16:35:33.252Z,23.65
2022-11-21T16:38:18.667Z,23.42
2022-11-21T16:41:05.362Z,24.27
2022-11-21T16:43:53.670Z,23.98
2022-11-21T16:46:43.374Z,23.45
2022-11-21T16:49:29.270Z,23.63
2022-11-21T16:52:15.069Z,23.05
2022-11-21T16:55:01.891Z,22.90
2022-11-21T16:57:47.697Z,22.45
2022-11-21T17:00:33.576Z,21.80
2022-11-21T17:03:19.442Z,21.70
2022-11-21T17:06:05.839Z,22.27
2022-11-21T17:08:51.545Z,21.27
2022-11-21T17:11:37.260Z,20.63
2022-11-21T17:14:22.646Z,20.40
2022-11-21T17:17:08.454Z,21.23
2022-11-21T17:19:54.615Z,21.33
2022-11-21T17:22:40.327Z,20.88
2022-11-21T17:25:25.996Z,20.48
2022-11-21T17:28:11.523Z,19.63
2022-11-21T17:30:57.297Z,20.05
2022-11-21T17:33:43.518Z,20.48
2022-11-21T17:36:30.652Z,19.92
2022-11-21T17:39:18.061Z,19.55
2022-11-21T17:42:03.710Z,18.45
2022-11-21T17:44:49.493Z,18.85
2022-11-21T17:47:35.078Z,18.90
2022-11-21T17:50:20.522Z,18.50
2022-11-21T17:53:06.120Z,17.90
2022-11-21T17:55:57.688Z,18.23
2022-11-21T17:58:43.391Z,17.52
2022-11-21T18:01:29.661Z,17.08
2022-11-21T18:04:17.479Z,16.77
2022-11-21T18:07:03.289Z,17.05
2022-11-21T18:09:48.772Z,16.23
2022-11-21T18:12:34.270Z,15.70
2022-11-21T18:15:19.659Z,16.17
2022-11-21T18:18:05.287Z,15.40
2022-11-21T18:20:51.380Z,14.82
2022-11-21T18:23:36.887Z,15.43
2022-11-21T18:26:25.370Z,14.98
2022-11-21T18:29:35.217Z,14.68
2022-11-21T18:32:16.615Z,14.25
2022-11-21T18:35:02.162Z,14.68
2022-11-21T18:37:47.634Z,14.13
2022-11-21T18:40:33.111Z,13.88
2022-11-21T18:43:18.741Z,13.77
2022-11-21T18:46:05.615Z,13.20
2022-11-21T18:49:08.203Z,13.20
2022-11-21T18:51:54.017Z,13.40
2022-11-21T18:54:40.023Z,13.00
2022-11-21T18:57:25.654Z,12.93
2022-11-21T19:00:12.220Z,12.90
2022-11-21T19:02:57.675Z,12.88
2022-11-21T19:05:43.163Z,12.52
2022-11-21T19:08:28.970Z,12.48
2022-11-21T19:11:15.732Z,12.40
2022-11-21T19:14:01.354Z,12.32
2022-11-21T19:16:47.155Z,12.15
2022-11-21T19:19:34.642Z,11.63
2022-11-21T19:22:20.799Z,11.77
2022-11-21T19:25:06.575Z,11.73
2022-11-21T19:27:52.042Z,11.15
2022-11-21T19:30:37.524Z,11.50
2022-11-21T19:33:23.794Z,11.48
2022-11-21T19:36:12.799Z,10.70
2022-11-21T19:38:58.606Z,10.45
2022-11-21T19:41:44.083Z,10.30
2022-11-21T19:44:29.876Z,10.63
2022-11-21T19:47:15.327Z,11.00
2022-11-21T19:50:01.117Z,10.40
2022-11-21T19:52:46.879Z,10.25
2022-11-21T19:55:32.362Z,10.02
2022-11-21T19:58:18.185Z,9.95
2022-11-21T20:01:15.641Z,10.15
2022-11-21T20:04:03.681Z,9.68
2022-11-21T20:06:49.191Z,9.90
2022-11-21T20:09:34.975Z,9.45
2022-11-21T20:12:20.755Z,9.63
2022-11-21T20:15:06.673Z,9.40
2022-11-21T20:17:52.762Z,9.30
2022-11-21T20:20:38.357Z,8.88
2022-11-21T20:23:23.850Z,9.20
2022-11-21T20:26:10.286Z,8.80
2022-11-21T20:28:56.707Z,9.40
2022-11-21T20:31:42.234Z,9.05
2022-11-21T20:34:28.516Z,8.88
2022-11-21T20:37:14.379Z,8.40
2022-11-21T20:40:00.049Z,8.75
2022-11-21T20:42:45.532Z,8.18
2022-11-21T20:48:36.714Z,8.00
2022-11-21T20:54:28.667Z,7.60
2022-11-21T20:57:15.487Z,7.53
2022-11-21T21:00:01.718Z,8.05
2022-11-21T21:02:51.522Z,7.05
2022-11-21T21:05:39.323Z,7.53
2022-11-21T21:08:26.038Z,7.80
2022-11-21T21:11:36.732Z,7.97
2022-11-21T21:14:20.738Z,7.40
2022-11-21T21:17:06.280Z,7.22
2022-11-21T21:19:52.182Z,7.30
2022-11-21T21:22:39.589Z,7.20
2022-11-21T21:25:25.023Z,7.28
2022-11-21T21:28:10.544Z,7.50
2022-11-21T21:30:55.964Z,7.00
2022-11-21T21:33:42.014Z,7.15
2022-11-21T21:36:28.395Z,6.72
2022-11-21T21:39:14.427Z,6.82
2022-11-21T21:42:00.140Z,6.72
2022-11-21T21:44:45.561Z,6.63
2022-11-21T21:47:31.032Z,6.78
2022-11-21T21:50:16.713Z,7.05
2022-11-21T21:53:03.093Z,6.38
2022-11-21T21:55:48.762Z,6.65
2022-11-21T21:58:36.114Z,6.40
2022-11-21T22:01:24.245Z,6.45
2022-11-21T22:04:11.428Z,6.20
2022-11-21T22:06:58.285Z,6.35
2022-11-21T22:09:43.662Z,6.32
2022-11-21T22:12:29.481Z,6.03
2022-11-21T22:15:15.439Z,5.57
2022-11-21T22:18:01.315Z,5.78
2022-11-21T22:20:46.944Z,6.10
2022-11-21T22:23:34.106Z,5.80
2022-11-21T22:26:19.985Z,5.68
2022-11-21T22:29:06.198Z,5.47
2022-11-21T22:31:51.950Z,5.90
2022-11-21T22:34:37.784Z,5.30
2022-11-21T22:37:23.578Z,5.75
2022-11-21T22:40:09.648Z,5.47
2022-11-21T22:42:55.472Z,5.30
2022-11-21T22:45:40.823Z,5.57
2022-11-21T22:48:26.315Z,5.68
2022-11-21T22:51:18.177Z,5.53
2022-11-21T22:54:03.767Z,5.85
2022-11-21T22:56:49.115Z,5.28
2022-11-21T22:59:34.639Z,5.30
2022-11-21T23:02:20.059Z,4.90
2022-11-21T23:05:05.832Z,4.97
2022-11-21T23:07:51.516Z,5.32
2022-11-21T23:10:37.223Z,5.32
2022-11-21T23:13:23.073Z,5.13
2022-11-21T23:16:10.069Z,5.22
2022-11-21T23:18:56.761Z,5.10
2022-11-21T23:21:42.859Z,4.50
2022-11-21T23:24:28.706Z,4.65
2022-11-21T23:27:14.056Z,4.57
2022-11-21T23:29:59.543Z,4.60
2022-11-21T23:32:44.943Z,4.30
2022-11-21T23:35:30.549Z,4.40
2022-11-21T23:38:17.009Z,5.22
2022-11-21T23:41:02.517Z,4.57
2022-11-21T23:43:48.048Z,4.72
2022-11-21T23:46:33.473Z,4.50
2022-11-21T23:49:19.026Z,4.57
2022-11-21T23:52:04.664Z,4.60
2022-11-21T23:54:50.339Z,4.37
2022-11-21T23:57:35.850Z,4.40
